createdAt,value
2023-05-15T00:00:40.325Z,53.40
2023-05-15T00:03:08.256Z,57.60
2023-05-15T00:05:36.129Z,57.50
2023-05-15T00:08:03.861Z,60.58
2023-05-15T00:10:31.591Z,56.88
2023-05-15T00:12:59.332Z,59.92
2023-05-15T00:15:28.528Z,56.53
2023-05-15T00:17:56.580Z,53.30
2023-05-15T00:20:24.448Z,56.15
2023-05-15T00:22:52.291Z,55.75
2023-05-15T00:25:20.225Z,53.65
2023-05-15T00:27:48.019Z,51.70
2023-05-15T00:30:16.482Z,51.35
2023-05-15T00:32:45.646Z,44.10
2023-05-15T00:35:13.518Z,50.08
2023-05-15T00:37:41.758Z,49.05
2023-05-15T00:40:13.411Z,53.08
2023-05-15T00:42:41.933Z,55.03
2023-05-15T00:45:11.981Z,46.60
2023-05-15T00:47:41.947Z,52.88
2023-05-15T00:50:12.263Z,52.50
2023-05-15T00:52:40.364Z,53.33
2023-05-15T00:55:08.880Z,52.28
2023-05-15T00:57:36.924Z,53.97
2023-05-15T01:00:10.426Z,55.28
2023-05-15T01:02:38.484Z,53.05
2023-05-15T01:05:09.064Z,58.25
2023-05-15T01:07:44.688Z,53.83
2023-05-15T01:10:13.199Z,56.85
2023-05-15T01:12:42.999Z,54.83
2023-05-15T01:15:11.753Z,61.53
2023-05-15T01:17:39.653Z,61.00
2023-05-15T01:20:12.022Z,58.75
2023-05-15T01:22:52.784Z,57.58
2023-05-15T01:25:55.688Z,60.25
2023-05-15T01:28:31.808Z,55.85
2023-05-15T01:31:03.972Z,54.63
2023-05-15T01:33:39.354Z,53.75
2023-05-15T01:36:14.564Z,57.00
2023-05-15T01:38:47.310Z,58.00
2023-05-15T01:41:22.284Z,59.50
2023-05-15T01:43:57.795Z,65.03
2023-05-15T01:46:31.090Z,56.97
2023-05-15T01:51:31.464Z,62.42
2023-05-15T01:54:00.585Z,56.00
2023-05-15T01:56:28.492Z,59.70
2023-05-15T01:59:00.069Z,57.95
2023-05-15T02:01:30.804Z,51.70
2023-05-15T02:03:58.833Z,58.50
2023-05-15T02:06:27.059Z,58.25
2023-05-15T02:08:58.264Z,58.30
2023-05-15T02:11:26.062Z,57.13
2023-05-15T02:13:55.995Z,59.10
2023-05-15T02:16:25.188Z,55.28
2023-05-15T02:18:53.310Z,57.75
2023-05-15T02:21:21.146Z,49.50
2023-05-15T02:23:49.128Z,59.63
2023-05-15T02:26:31.284Z,56.88
2023-05-15T02:29:11.158Z,54.40
2023-05-15T02:31:48.617Z,54.10
2023-05-15T02:34:23.631Z,52.92
2023-05-15T02:36:54.263Z,55.20
2023-05-15T02:39:25.106Z,59.20
2023-05-15T02:41:54.745Z,53.85
2023-05-15T02:44:23.800Z,53.50
2023-05-15T02:46:54.952Z,54.50
2023-05-15T02:49:24.169Z,50.03
2023-05-15T02:51:52.059Z,53.58
2023-05-15T02:54:20.268Z,60.35
2023-05-15T02:56:48.204Z,70.35
2023-05-15T02:59:19.788Z,59.75
2023-05-15T03:01:47.981Z,66.72
2023-05-15T03:04:17.370Z,53.25
2023-05-15T03:06:45.285Z,58.22
2023-05-15T03:09:13.243Z,56.35
2023-05-15T03:11:41.009Z,58.22
2023-05-15T03:14:08.952Z,55.53
2023-05-15T03:16:38.969Z,51.28
2023-05-15T03:19:07.501Z,51.70
2023-05-15T03:21:36.773Z,47.95
2023-05-15T03:24:04.855Z,55.60
2023-05-15T03:26:32.655Z,49.58
2023-05-15T03:29:02.065Z,50.22
2023-05-15T03:31:30.191Z,48.97
2023-05-15T03:33:58.096Z,46.17
2023-05-15T03:36:26.000Z,44.58
2023-05-15T03:38:55.384Z,35.92
2023-05-15T03:41:23.293Z,39.63
2023-05-15T03:43:51.147Z,39.45
2023-05-15T03:46:20.225Z,35.65
2023-05-15T03:48:48.162Z,33.58
2023-05-15T03:51:16.053Z,37.33
2023-05-15T03:53:43.893Z,31.52
2023-05-15T03:56:13.183Z,36.00
2023-05-15T03:58:42.131Z,35.75
2023-05-15T04:01:09.947Z,39.28
2023-05-15T04:03:37.747Z,34.22
2023-05-15T04:06:06.416Z,29.52
2023-05-15T04:08:34.176Z,29.58
2023-05-15T04:11:02.015Z,36.35
2023-05-15T04:13:31.175Z,31.17
2023-05-15T04:15:59.706Z,28.50
2023-05-15T04:18:27.435Z,27.20
2023-05-15T04:20:55.441Z,27.92
2023-05-15T04:23:23.353Z,29.88
2023-05-15T04:25:51.457Z,27.90
2023-05-15T04:28:21.028Z,28.27
2023-05-15T04:30:50.633Z,23.33
2023-05-15T04:33:18.332Z,27.77
2023-05-15T04:35:46.143Z,30.52
2023-05-15T04:38:13.821Z,27.42
2023-05-15T04:40:41.631Z,23.58
2023-05-15T04:43:09.662Z,23.13
2023-05-15T04:45:37.499Z,19.38
2023-05-15T04:48:07.169Z,19.08
2023-05-15T04:50:34.972Z,19.63
2023-05-15T04:53:03.480Z,21.10
2023-05-15T04:55:33.052Z,18.67
2023-05-15T04:58:01.752Z,18.35
2023-05-15T05:00:29.587Z,18.63
2023-05-15T05:02:57.595Z,21.05
2023-05-15T05:05:27.038Z,21.27
2023-05-15T05:07:55.016Z,20.20
2023-05-15T05:10:23.061Z,23.10
2023-05-15T05:12:50.821Z,19.58
2023-05-15T05:15:18.927Z,21.73
2023-05-15T05:17:47.086Z,19.20
2023-05-15T05:20:14.886Z,21.48
2023-05-15T05:22:44.078Z,28.00
2023-05-15T05:25:11.919Z,23.10
2023-05-15T05:27:39.807Z,23.70
2023-05-15T05:30:08.852Z,21.25
2023-05-15T05:32:36.866Z,26.70
2023-05-15T05:35:06.592Z,22.30
2023-05-15T05:37:34.457Z,22.50
2023-05-15T05:40:05.909Z,20.25
2023-05-15T05:42:33.972Z,26.08
2023-05-15T05:45:01.777Z,22.83
2023-05-15T05:47:29.720Z,21.30
2023-05-15T05:49:57.853Z,21.65
2023-05-15T05:52:25.592Z,26.17
2023-05-15T05:54:53.301Z,24.92
2023-05-15T05:57:22.467Z,23.08
2023-05-15T05:59:50.833Z,26.20
2023-05-15T06:02:18.840Z,22.60
2023-05-15T06:04:47.310Z,26.00
2023-05-15T06:07:15.515Z,21.80
2023-05-15T06:09:45.854Z,25.10
2023-05-15T06:12:13.655Z,22.80
2023-05-15T06:14:42.832Z,22.55
2023-05-15T06:17:10.728Z,19.40
2023-05-15T06:19:38.605Z,25.10
2023-05-15T06:22:06.758Z,19.83
2023-05-15T06:24:34.709Z,15.65
2023-05-15T06:27:02.443Z,15.70
2023-05-15T06:29:30.269Z,17.98
2023-05-15T06:31:59.628Z,16.52
2023-05-15T06:34:27.427Z,16.80
2023-05-15T06:36:55.463Z,17.98
2023-05-15T06:39:23.277Z,14.48
2023-05-15T06:41:51.027Z,14.15
2023-05-15T06:44:20.062Z,15.90
2023-05-15T06:46:48.124Z,15.55
2023-05-15T06:49:17.329Z,19.17
2023-05-15T06:51:45.104Z,16.30
2023-05-15T06:54:12.856Z,19.23
2023-05-15T06:56:40.538Z,15.60
2023-05-15T06:59:08.311Z,13.75
2023-05-15T07:01:36.119Z,21.60
2023-05-15T07:04:04.015Z,15.55
2023-05-15T07:06:33.216Z,13.50
2023-05-15T07:09:01.366Z,18.88
2023-05-15T07:11:29.485Z,12.32
2023-05-15T07:13:57.696Z,14.02
2023-05-15T07:16:25.528Z,17.77
2023-05-15T07:18:53.390Z,17.45
2023-05-15T07:21:21.198Z,17.38
2023-05-15T07:23:50.559Z,19.15
2023-05-15T07:26:28.700Z,10.93
2023-05-15T07:29:02.369Z,10.05
2023-05-15T07:31:31.196Z,14.10
2023-05-15T07:33:59.011Z,13.73
2023-05-15T07:36:26.768Z,11.43
2023-05-15T07:38:56.096Z,16.58
2023-05-15T07:41:23.809Z,12.60
2023-05-15T07:43:51.527Z,12.32
2023-05-15T07:46:19.277Z,15.43
2023-05-15T07:48:47.181Z,14.88
2023-05-15T07:51:14.926Z,14.20
2023-05-15T07:53:42.808Z,15.85
2023-05-15T07:56:11.956Z,13.23
2023-05-15T07:58:40.273Z,15.27
2023-05-15T08:01:08.084Z,17.10
2023-05-15T08:03:35.988Z,14.18
2023-05-15T08:06:03.844Z,16.25
2023-05-15T08:08:31.905Z,11.40
2023-05-15T08:11:00.026Z,10.68
2023-05-15T08:13:29.525Z,14.18
2023-05-15T08:15:57.596Z,16.92
2023-05-15T08:18:25.423Z,12.45
2023-05-15T08:20:53.308Z,12.00
2023-05-15T08:23:21.077Z,13.60
2023-05-15T08:25:49.127Z,13.25
2023-05-15T08:28:16.930Z,16.17
2023-05-15T08:30:46.320Z,13.30
2023-05-15T08:33:14.086Z,17.67
2023-05-15T08:35:41.887Z,14.23
2023-05-15T08:38:09.656Z,13.43
2023-05-15T08:40:39.936Z,13.82
2023-05-15T08:43:15.255Z,10.82
2023-05-15T08:45:43.922Z,21.08
2023-05-15T08:48:17.127Z,28.48
2023-05-15T08:50:45.901Z,15.18
2023-05-15T08:53:14.642Z,14.10
2023-05-15T08:55:43.192Z,15.18
2023-05-15T08:58:11.343Z,12.05
2023-05-15T09:00:39.544Z,10.13
2023-05-15T09:03:08.036Z,12.52
2023-05-15T09:05:38.832Z,12.05
2023-05-15T09:08:09.286Z,9.85
2023-05-15T09:10:37.130Z,19.92
2023-05-15T09:13:07.549Z,13.73
2023-05-15T09:15:37.203Z,13.02
2023-05-15T09:18:07.848Z,12.52
2023-05-15T09:20:38.964Z,13.90
2023-05-15T09:23:22.533Z,11.77
2023-05-15T09:25:53.504Z,11.68
2023-05-15T09:28:30.151Z,11.88
2023-05-15T09:31:00.056Z,18.58
2023-05-15T09:33:32.763Z,16.13
2023-05-15T09:36:02.286Z,18.70
2023-05-15T09:38:30.929Z,9.63
2023-05-15T09:41:03.860Z,12.73
2023-05-15T09:43:35.562Z,11.35
2023-05-15T09:46:03.675Z,9.80
2023-05-15T09:48:32.440Z,12.32
2023-05-15T09:51:02.173Z,11.60
2023-05-15T09:53:31.825Z,11.50
2023-05-15T09:55:59.873Z,12.65
2023-05-15T09:58:27.794Z,10.98
2023-05-15T10:00:55.693Z,11.98
2023-05-15T10:03:24.144Z,12.20
2023-05-15T10:06:00.075Z,13.57
2023-05-15T10:08:29.406Z,11.43
2023-05-15T10:11:00.971Z,16.38
2023-05-15T10:13:31.716Z,9.50
2023-05-15T10:16:02.183Z,15.05
2023-05-15T10:18:34.856Z,16.73
2023-05-15T10:21:04.619Z,12.70
2023-05-15T10:23:36.723Z,11.48
2023-05-15T10:26:09.958Z,9.90
2023-05-15T10:28:38.928Z,10.27
2023-05-15T10:31:08.200Z,12.90
2023-05-15T10:33:38.067Z,13.68
2023-05-15T10:36:07.367Z,13.90
2023-05-15T10:38:37.879Z,10.60
2023-05-15T10:41:17.331Z,13.85
2023-05-15T10:43:47.156Z,8.27
2023-05-15T10:46:16.082Z,13.45
2023-05-15T10:48:44.512Z,11.00
2023-05-15T10:51:17.340Z,13.80
2023-05-15T10:53:47.312Z,8.75
2023-05-15T10:56:16.565Z,9.73
2023-05-15T10:58:49.061Z,13.90
2023-05-15T11:01:27.992Z,11.77
2023-05-15T11:04:13.213Z,8.43
2023-05-15T11:06:43.762Z,11.68
2023-05-15T11:09:38.212Z,11.85
2023-05-15T11:12:07.904Z,9.32
2023-05-15T11:14:38.070Z,10.55
2023-05-15T11:17:08.063Z,13.25
2023-05-15T11:19:42.138Z,11.77
2023-05-15T11:22:21.304Z,11.98
2023-05-15T11:24:53.179Z,12.88
2023-05-15T11:27:23.251Z,11.07
2023-05-15T11:30:20.555Z,11.38
2023-05-15T11:32:55.555Z,12.68
2023-05-15T11:35:25.007Z,10.13
2023-05-15T11:37:55.544Z,12.23
2023-05-15T11:40:26.893Z,15.70
2023-05-15T11:43:07.000Z,12.07
2023-05-15T11:45:36.635Z,12.02
2023-05-15T11:48:06.579Z,10.55
2023-05-15T11:50:36.421Z,11.68
2023-05-15T11:53:06.330Z,25.52
2023-05-15T11:55:37.405Z,10.48
2023-05-15T11:58:06.166Z,14.48
2023-05-15T12:00:34.137Z,11.25
2023-05-15T12:03:04.654Z,26.02
2023-05-15T12:05:32.767Z,16.40
2023-05-15T12:08:02.163Z,15.93
2023-05-15T12:10:31.336Z,15.25
2023-05-15T12:13:00.939Z,17.00
2023-05-15T12:15:28.799Z,17.92
2023-05-15T12:17:56.775Z,14.75
2023-05-15T12:20:24.981Z,14.63
2023-05-15T12:22:53.074Z,15.90
2023-05-15T12:25:21.074Z,11.85
2023-05-15T12:27:48.976Z,17.63
2023-05-15T12:30:18.386Z,10.95
2023-05-15T12:32:46.571Z,10.23
2023-05-15T12:35:14.550Z,12.85
2023-05-15T12:37:43.037Z,10.65
2023-05-15T12:40:12.026Z,13.30
2023-05-15T12:42:41.286Z,12.10
2023-05-15T12:45:20.675Z,15.20
2023-05-15T12:47:50.221Z,15.85
2023-05-15T12:50:19.477Z,16.50
2023-05-15T12:52:48.460Z,12.57
2023-05-15T12:55:19.628Z,14.63
2023-05-15T12:57:47.563Z,10.38
2023-05-15T13:00:21.496Z,21.75
2023-05-15T13:02:51.515Z,8.38
2023-05-15T13:05:19.673Z,10.98
2023-05-15T13:07:48.665Z,9.63
2023-05-15T13:10:16.646Z,9.45
2023-05-15T13:12:46.435Z,6.38
2023-05-15T13:15:29.603Z,12.13
2023-05-15T13:18:01.022Z,21.55
2023-05-15T13:20:29.698Z,11.32
2023-05-15T13:22:57.869Z,8.52
2023-05-15T13:25:25.769Z,13.38
2023-05-15T13:27:53.926Z,8.68
2023-05-15T13:30:22.002Z,11.52
2023-05-15T13:32:53.267Z,10.30
2023-05-15T13:35:22.837Z,8.10
2023-05-15T13:37:51.174Z,12.32
2023-05-15T13:40:19.024Z,9.75
2023-05-15T13:42:46.784Z,9.27
2023-05-15T13:45:19.055Z,13.45
2023-05-15T13:47:46.999Z,9.70
2023-05-15T13:50:17.243Z,9.93
2023-05-15T13:52:46.735Z,8.57
2023-05-15T13:55:14.888Z,23.60
2023-05-15T13:57:44.246Z,7.30
2023-05-15T14:00:14.438Z,13.95
2023-05-15T14:03:01.268Z,9.10
2023-05-15T14:05:31.149Z,13.20
2023-05-15T14:07:58.914Z,8.13
2023-05-15T14:10:27.065Z,15.68
2023-05-15T14:12:55.276Z,8.60
2023-05-15T14:15:23.338Z,6.97
2023-05-15T14:17:51.124Z,6.47
2023-05-15T14:20:19.086Z,6.90
2023-05-15T14:22:48.446Z,7.43
2023-05-15T14:25:16.346Z,9.77
2023-05-15T14:27:44.203Z,9.02
2023-05-15T14:30:12.484Z,12.57
2023-05-15T14:32:40.284Z,9.02
2023-05-15T14:35:08.735Z,6.15
2023-05-15T14:37:37.667Z,8.73
2023-05-15T14:40:09.000Z,12.07
2023-05-15T14:42:36.965Z,8.85
2023-05-15T14:45:05.303Z,12.35
2023-05-15T14:47:33.836Z,10.98
2023-05-15T14:50:01.969Z,6.50
2023-05-15T14:52:29.929Z,8.88
2023-05-15T14:55:08.518Z,8.73
2023-05-15T14:57:38.964Z,5.38
2023-05-15T15:00:08.347Z,5.43
2023-05-15T15:02:36.227Z,6.03
2023-05-15T15:05:04.750Z,11.20
2023-05-15T15:07:52.952Z,8.57
2023-05-15T15:10:20.694Z,9.65
2023-05-15T15:12:52.406Z,8.98
2023-05-15T15:15:20.673Z,7.47
2023-05-15T15:17:48.473Z,10.27
2023-05-15T15:20:18.302Z,6.95
2023-05-15T15:22:46.277Z,9.43
2023-05-15T15:25:14.578Z,11.13
2023-05-15T15:27:42.765Z,7.25
2023-05-15T15:30:13.092Z,7.63
2023-05-15T15:32:41.666Z,9.73
2023-05-15T15:35:09.996Z,11.18
2023-05-15T15:37:38.990Z,8.35
2023-05-15T15:40:08.660Z,12.15
2023-05-15T15:42:36.542Z,10.93
2023-05-15T15:45:05.788Z,12.35
2023-05-15T15:47:34.916Z,8.40
2023-05-15T15:50:02.883Z,10.85
2023-05-15T15:52:30.919Z,10.70
2023-05-15T15:54:58.658Z,13.00
2023-05-15T15:57:26.480Z,10.05
2023-05-15T15:59:54.270Z,11.85
2023-05-15T16:02:22.185Z,10.55
2023-05-15T16:04:51.577Z,12.93
2023-05-15T16:07:38.030Z,12.48
2023-05-15T16:10:12.424Z,9.38
2023-05-15T16:12:42.437Z,12.50
2023-05-15T16:17:41.916Z,10.43
2023-05-15T16:20:11.783Z,11.13
2023-05-15T16:22:41.544Z,12.85
2023-05-15T16:25:10.128Z,8.25
2023-05-15T16:27:38.128Z,10.02
2023-05-15T16:30:06.914Z,11.82
2023-05-15T16:32:35.555Z,12.40
2023-05-15T16:35:03.590Z,11.98
2023-05-15T16:37:32.831Z,14.55
2023-05-15T16:40:00.740Z,13.23
2023-05-15T16:42:28.818Z,12.63
2023-05-15T16:44:56.673Z,10.15
2023-05-15T16:47:24.562Z,7.82
2023-05-15T16:49:52.347Z,10.50
2023-05-15T16:52:20.079Z,8.80
2023-05-15T16:54:49.274Z,8.38
2023-05-15T16:57:17.726Z,9.80
2023-05-15T16:59:46.024Z,6.80
2023-05-15T17:02:15.355Z,9.35
2023-05-15T17:04:43.220Z,6.55
2023-05-15T17:07:10.957Z,7.72
2023-05-15T17:09:40.156Z,8.43
2023-05-15T17:12:09.730Z,10.07
2023-05-15T17:14:37.599Z,8.18
2023-05-15T17:17:05.832Z,7.78
2023-05-15T17:19:34.568Z,7.75
2023-05-15T17:22:02.378Z,6.38
2023-05-15T17:24:38.764Z,8.38
2023-05-15T17:27:20.411Z,9.43
2023-05-15T17:29:48.540Z,7.40
2023-05-15T17:32:17.468Z,7.63
2023-05-15T17:34:45.755Z,6.68
2023-05-15T17:37:13.994Z,6.80
2023-05-15T17:39:41.880Z,10.50
2023-05-15T17:42:09.859Z,6.95
2023-05-15T17:44:39.325Z,6.65
2023-05-15T17:47:08.567Z,6.80
2023-05-15T17:49:36.559Z,15.48
2023-05-15T17:52:04.600Z,9.25
2023-05-15T17:54:32.509Z,8.35
2023-05-15T17:57:00.293Z,8.63
2023-05-15T17:59:28.481Z,8.18
2023-05-15T18:01:58.082Z,7.07
2023-05-15T18:04:26.087Z,7.30
2023-05-15T18:06:53.998Z,8.20
2023-05-15T18:09:24.004Z,6.55
2023-05-15T18:11:52.593Z,6.82
2023-05-15T18:14:20.389Z,4.15
2023-05-15T18:16:48.197Z,4.60
2023-05-15T18:19:18.072Z,3.55
2023-05-15T18:21:46.003Z,5.45
2023-05-15T18:24:13.717Z,6.45
2023-05-15T18:26:41.463Z,4.30
2023-05-15T18:29:09.261Z,4.68
2023-05-15T18:31:37.323Z,5.53
2023-05-15T18:34:05.233Z,7.50
2023-05-15T18:36:34.639Z,7.90
2023-05-15T18:39:02.600Z,3.50
2023-05-15T18:41:30.725Z,8.25
2023-05-15T18:43:58.572Z,5.80
2023-05-15T18:46:28.160Z,3.15
2023-05-15T18:48:56.683Z,5.05
2023-05-15T18:51:24.668Z,4.20
2023-05-15T18:53:53.748Z,2.92
2023-05-15T18:56:22.036Z,2.65
2023-05-15T18:58:49.885Z,6.15
2023-05-15T19:01:18.095Z,4.85
2023-05-15T19:03:46.059Z,3.95
2023-05-15T19:06:19.616Z,1.30
2023-05-15T19:11:17.672Z,3.58
2023-05-15T19:13:45.466Z,1.92
2023-05-15T19:16:13.433Z,2.53
2023-05-15T19:18:41.388Z,2.80
2023-05-15T19:21:09.306Z,3.78
2023-05-15T19:23:37.159Z,5.00
2023-05-15T19:26:05.361Z,5.43
2023-05-15T19:28:34.860Z,4.80
2023-05-15T19:31:04.261Z,4.35
2023-05-15T19:33:32.122Z,6.07
2023-05-15T19:35:59.911Z,7.72
2023-05-15T19:38:27.978Z,7.82
2023-05-15T19:40:55.723Z,8.23
2023-05-15T19:43:24.461Z,5.60
2023-05-15T19:45:53.597Z,10.50
2023-05-15T19:48:21.462Z,10.93
2023-05-15T19:50:49.324Z,12.27
2023-05-15T19:53:17.159Z,12.82
2023-05-15T19:55:50.738Z,12.02
2023-05-15T19:58:21.594Z,8.55
2023-05-15T20:00:52.595Z,7.10
2023-05-15T20:03:22.367Z,5.57
2023-05-15T20:05:50.453Z,5.05
2023-05-15T20:08:18.175Z,4.88
2023-05-15T20:10:51.699Z,5.30
2023-05-15T20:15:47.913Z,9.77
2023-05-15T20:18:16.443Z,13.05
2023-05-15T20:20:46.459Z,13.40
2023-05-15T20:23:14.363Z,7.25
2023-05-15T20:25:42.330Z,5.47
2023-05-15T20:28:10.224Z,10.32
2023-05-15T20:30:38.116Z,8.10
2023-05-15T20:33:06.194Z,4.28
2023-05-15T20:35:34.357Z,10.25
2023-05-15T20:38:04.320Z,11.20
2023-05-15T20:40:32.117Z,11.50
2023-05-15T20:43:01.119Z,9.68
2023-05-15T20:45:29.831Z,6.70
2023-05-15T20:47:58.161Z,13.93
2023-05-15T20:50:26.633Z,15.80
2023-05-15T20:52:55.438Z,17.98
2023-05-15T20:55:24.689Z,18.95
2023-05-15T20:57:52.519Z,14.93
2023-05-15T21:00:20.428Z,21.45
2023-05-15T21:02:48.328Z,12.90
2023-05-15T21:05:16.576Z,14.90
2023-05-15T21:07:44.445Z,12.85
2023-05-15T21:10:12.661Z,11.85
2023-05-15T21:12:42.214Z,11.40
2023-05-15T21:15:11.268Z,9.70
2023-05-15T21:17:39.778Z,11.40
2023-05-15T21:20:09.137Z,18.80
2023-05-15T21:22:37.281Z,12.55
2023-05-15T21:25:05.833Z,14.05
2023-05-15T21:27:33.604Z,15.05
2023-05-15T21:30:03.016Z,10.57
2023-05-15T21:32:30.830Z,27.10
2023-05-15T21:34:58.746Z,18.20
2023-05-15T21:37:27.365Z,18.42
2023-05-15T21:39:55.251Z,13.20
2023-05-15T21:42:23.470Z,16.55
2023-05-15T21:44:51.277Z,18.63
2023-05-15T21:47:20.384Z,19.85
2023-05-15T21:49:48.545Z,23.10
2023-05-15T21:52:16.500Z,19.15
2023-05-15T21:54:44.661Z,18.83
2023-05-15T21:57:12.390Z,16.77
2023-05-15T21:59:40.167Z,16.50
2023-05-15T22:02:08.365Z,17.23
2023-05-15T22:04:37.726Z,20.50
2023-05-15T22:07:05.837Z,14.30
2023-05-15T22:09:33.786Z,15.63
2023-05-15T22:12:01.547Z,16.08
2023-05-15T22:14:29.639Z,15.65
2023-05-15T22:16:57.836Z,17.73
2023-05-15T22:19:33.023Z,26.35
2023-05-15T22:22:03.395Z,22.35
2023-05-15T22:24:31.409Z,14.38
2023-05-15T22:27:00.006Z,23.13
2023-05-15T22:29:28.267Z,31.75
2023-05-15T22:31:56.179Z,23.27
2023-05-15T22:34:25.326Z,22.90
2023-05-15T22:39:23.350Z,20.13
2023-05-15T22:41:51.503Z,19.38
2023-05-15T22:44:19.226Z,24.00
2023-05-15T22:46:47.037Z,23.58
2023-05-15T22:49:19.217Z,24.02
2023-05-15T22:51:47.125Z,21.25
2023-05-15T22:54:15.165Z,17.73
2023-05-15T22:56:44.351Z,24.90
2023-05-15T22:59:12.093Z,17.02
2023-05-15T23:01:40.080Z,21.27
2023-05-15T23:04:08.157Z,14.90
2023-05-15T23:06:36.035Z,27.13
2023-05-15T23:09:04.695Z,20.27
2023-05-15T23:11:32.768Z,17.48
2023-05-15T23:14:02.972Z,23.27
2023-05-15T23:16:30.910Z,16.45
2023-05-15T23:18:58.938Z,22.00
2023-05-15T23:21:27.204Z,25.55
2023-05-15T23:23:55.431Z,26.88
2023-05-15T23:26:23.397Z,20.95
2023-05-15T23:28:51.410Z,15.40
2023-05-15T23:31:20.655Z,18.08
2023-05-15T23:33:48.589Z,25.00
2023-05-15T23:36:16.426Z,24.05
2023-05-15T23:38:44.393Z,22.17
2023-05-15T23:41:12.194Z,25.35
2023-05-15T23:43:39.984Z,22.88
2023-05-15T23:46:07.763Z,22.45
2023-05-15T23:48:36.956Z,18.77
2023-05-15T23:51:04.844Z,22.35
2023-05-15T23:53:32.922Z,18.20
2023-05-15T23:56:00.833Z,17.77
2023-05-15T23:58:29.220Z,28.17
